createdAt,value
2018-03-18T00:01:03.451Z,82.02
2018-03-18T00:03:30.912Z,81.38
2018-03-18T00:05:58.378Z,82.01
2018-03-18T00:08:25.857Z,81.83
2018-03-18T00:10:53.296Z,81.17
2018-03-18T00:13:20.752Z,83.08
2018-03-18T00:15:48.358Z,82.87
2018-03-18T00:18:15.818Z,82.78
2018-03-18T00:20:43.354Z,83.45
2018-03-18T00:23:10.859Z,83.20
2018-03-18T00:25:38.366Z,82.37
2018-03-18T00:28:05.915Z,82.17
2018-03-18T00:30:33.371Z,82.11
2018-03-18T00:33:00.816Z,81.70
2018-03-18T00:35:28.293Z,81.85
2018-03-18T00:37:55.769Z,81.66
2018-03-18T00:40:23.276Z,80.74
2018-03-18T00:42:50.734Z,81.95
2018-03-18T00:45:18.226Z,82.37
2018-03-18T00:47:45.691Z,81.86
2018-03-18T00:50:13.183Z,82.17
2018-03-18T00:52:40.671Z,81.83
2018-03-18T00:55:08.141Z,83.21
2018-03-18T00:57:35.738Z,83.03
2018-03-18T01:00:03.188Z,81.92
2018-03-18T01:02:30.676Z,82.36
2018-03-18T01:04:58.153Z,82.59
2018-03-18T01:07:25.627Z,82.10
2018-03-18T01:09:53.082Z,81.55
2018-03-18T01:12:20.546Z,81.12
2018-03-18T01:14:48.022Z,82.46
2018-03-18T01:17:15.502Z,82.41
2018-03-18T01:19:42.996Z,82.72
2018-03-18T01:22:10.455Z,81.50
2018-03-18T01:24:38.012Z,81.53
2018-03-18T01:27:05.494Z,81.71
2018-03-18T01:29:32.940Z,82.82
2018-03-18T01:32:00.497Z,82.76
2018-03-18T01:34:27.950Z,82.95
2018-03-18T01:36:55.411Z,82.76
2018-03-18T01:39:22.885Z,82.73
2018-03-18T01:41:50.351Z,83.87
2018-03-18T01:44:17.809Z,82.80
2018-03-18T01:46:45.331Z,82.67
2018-03-18T01:49:12.816Z,82.91
2018-03-18T01:51:40.265Z,82.63
2018-03-18T01:54:07.725Z,82.11
2018-03-18T01:56:35.182Z,82.28
2018-03-18T01:59:02.672Z,82.76
2018-03-18T02:01:30.133Z,82.57
2018-03-18T02:03:57.613Z,82.44
2018-03-18T02:06:25.087Z,82.11
2018-03-18T02:08:52.628Z,82.78
2018-03-18T02:11:20.291Z,82.49
2018-03-18T02:13:47.741Z,81.24
2018-03-18T02:16:15.216Z,81.61
2018-03-18T02:18:42.674Z,81.23
2018-03-18T02:21:10.147Z,81.26
2018-03-18T02:23:37.605Z,81.62
2018-03-18T02:26:05.092Z,81.67
2018-03-18T02:28:32.558Z,81.56
2018-03-18T02:31:00.012Z,81.73
2018-03-18T02:33:27.486Z,81.43
2018-03-18T02:35:54.949Z,82.17
2018-03-18T02:38:22.411Z,82.00
2018-03-18T02:40:49.904Z,82.19
2018-03-18T02:43:17.367Z,82.02
2018-03-18T02:45:44.847Z,81.97
2018-03-18T02:48:12.311Z,82.49
2018-03-18T02:50:39.768Z,81.31
2018-03-18T02:53:07.242Z,81.43
2018-03-18T02:55:34.699Z,81.50
2018-03-18T02:58:02.174Z,81.49
2018-03-18T03:00:29.647Z,81.36
2018-03-18T03:02:57.133Z,81.66
2018-03-18T03:05:24.620Z,81.43
2018-03-18T03:07:52.101Z,81.74
2018-03-18T03:10:19.577Z,82.15
2018-03-18T03:12:47.025Z,82.07
2018-03-18T03:15:14.511Z,81.41
2018-03-18T03:17:41.978Z,80.90
2018-03-18T03:20:09.433Z,80.83
2018-03-18T03:22:36.885Z,80.44
2018-03-18T03:25:04.406Z,79.81
2018-03-18T03:27:31.865Z,81.37
2018-03-18T03:29:59.318Z,80.81
2018-03-18T03:32:26.821Z,80.64
2018-03-18T03:34:54.272Z,81.03
2018-03-18T03:37:21.781Z,81.00
2018-03-18T03:39:49.235Z,80.29
2018-03-18T03:42:16.732Z,80.47
2018-03-18T03:44:44.189Z,80.10
2018-03-18T03:47:11.687Z,80.61
2018-03-18T03:49:39.147Z,80.43
2018-03-18T03:52:06.618Z,79.62
2018-03-18T03:54:34.098Z,79.87
2018-03-18T03:57:01.550Z,80.62
2018-03-18T03:59:29.013Z,80.05
2018-03-18T04:01:56.472Z,79.56
2018-03-18T04:04:23.930Z,79.03
2018-03-18T04:06:51.389Z,79.92
2018-03-18T04:09:18.917Z,79.39
2018-03-18T04:11:46.398Z,79.24
2018-03-18T04:14:13.902Z,79.40
2018-03-18T04:16:41.416Z,79.16
2018-03-18T04:19:19.109Z,78.13
2018-03-18T04:21:46.570Z,79.19
2018-03-18T04:24:14.049Z,78.39
2018-03-18T04:26:41.592Z,78.40
2018-03-18T04:29:09.037Z,77.54
2018-03-18T04:31:36.506Z,78.06
2018-03-18T04:34:04.023Z,77.74
2018-03-18T04:36:31.494Z,77.78
2018-03-18T04:38:58.961Z,78.21
2018-03-18T04:41:26.457Z,78.35
2018-03-18T04:43:53.951Z,78.27
2018-03-18T04:46:21.411Z,77.66
2018-03-18T04:48:48.879Z,77.25
2018-03-18T04:51:16.331Z,77.22
2018-03-18T04:53:43.796Z,77.13
2018-03-18T04:56:11.254Z,77.46
2018-03-18T04:58:38.714Z,77.32
2018-03-18T05:01:06.162Z,77.32
2018-03-18T05:03:33.709Z,77.07
2018-03-18T05:06:01.162Z,77.19
2018-03-18T05:08:28.623Z,76.86
2018-03-18T05:10:56.105Z,76.53
2018-03-18T05:13:23.564Z,77.27
2018-03-18T05:15:51.021Z,76.37
2018-03-18T05:18:18.491Z,76.52
2018-03-18T05:20:45.985Z,76.67
2018-03-18T05:23:13.434Z,76.09
2018-03-18T05:25:40.895Z,75.74
2018-03-18T05:28:08.373Z,76.19
2018-03-18T05:30:35.821Z,75.67
2018-03-18T05:33:03.330Z,75.81
2018-03-18T05:35:30.787Z,76.46
2018-03-18T05:37:58.258Z,75.04
2018-03-18T05:40:25.785Z,75.49
2018-03-18T05:42:53.233Z,75.75
2018-03-18T05:45:20.752Z,75.74
2018-03-18T05:47:48.214Z,75.00
2018-03-18T05:50:15.704Z,74.68
2018-03-18T05:52:43.171Z,74.62
2018-03-18T05:55:10.890Z,74.04
2018-03-18T05:57:38.368Z,74.62
2018-03-18T06:00:05.831Z,75.37
2018-03-18T06:02:33.290Z,73.80
2018-03-18T06:05:00.751Z,72.47
2018-03-18T06:07:28.305Z,74.20
2018-03-18T06:09:55.827Z,74.35
2018-03-18T06:12:23.323Z,74.29
2018-03-18T06:14:50.846Z,74.50
2018-03-18T06:17:18.689Z,73.77
2018-03-18T06:19:46.184Z,73.05
2018-03-18T06:22:13.688Z,72.28
2018-03-18T06:24:41.164Z,72.02
2018-03-18T06:27:08.694Z,72.96
2018-03-18T06:29:37.079Z,71.96
2018-03-18T06:32:04.731Z,73.26
2018-03-18T06:34:32.439Z,73.71
2018-03-18T06:36:59.906Z,73.99
2018-03-18T06:39:27.357Z,72.95
2018-03-18T06:41:54.899Z,71.83
2018-03-18T06:44:22.902Z,71.82
2018-03-18T06:46:50.393Z,72.07
2018-03-18T06:49:19.417Z,72.54
2018-03-18T06:51:46.969Z,71.65
2018-03-18T06:54:14.447Z,71.11
2018-03-18T06:56:41.963Z,72.26
2018-03-18T06:59:09.444Z,72.10
2018-03-18T07:01:36.945Z,71.62
2018-03-18T07:04:04.379Z,71.33
2018-03-18T07:06:31.831Z,71.14
2018-03-18T07:08:59.305Z,70.63
2018-03-18T07:11:26.765Z,70.09
2018-03-18T07:13:54.234Z,69.68
2018-03-18T07:16:21.729Z,68.02
2018-03-18T07:18:49.203Z,69.20
2018-03-18T07:21:16.669Z,68.43
2018-03-18T07:23:44.126Z,68.23
2018-03-18T07:26:11.606Z,68.16
2018-03-18T07:28:39.077Z,67.74
2018-03-18T07:31:06.528Z,67.61
2018-03-18T07:33:34.005Z,68.21
2018-03-18T07:36:01.532Z,67.49
2018-03-18T07:38:28.984Z,68.61
2018-03-18T07:40:56.438Z,68.82
2018-03-18T07:43:23.955Z,67.87
2018-03-18T07:45:51.412Z,69.14
2018-03-18T07:48:18.892Z,67.89
2018-03-18T07:50:46.569Z,66.15
2018-03-18T07:53:14.018Z,66.88
2018-03-18T07:55:41.486Z,66.89
2018-03-18T07:58:08.945Z,66.88
2018-03-18T08:00:36.408Z,65.46
2018-03-18T08:03:03.986Z,65.60
2018-03-18T08:05:31.533Z,66.76
2018-03-18T08:07:59.251Z,64.77
2018-03-18T08:10:26.828Z,63.42
2018-03-18T08:12:54.285Z,62.38
2018-03-18T08:15:21.866Z,63.90
2018-03-18T08:17:49.446Z,63.10
2018-03-18T08:20:19.210Z,63.80
2018-03-18T08:22:46.897Z,64.01
2018-03-18T08:25:14.449Z,65.21
2018-03-18T08:27:41.907Z,64.42
2018-03-18T08:30:09.357Z,64.88
2018-03-18T08:32:38.061Z,64.55
2018-03-18T08:35:05.579Z,62.21
2018-03-18T08:37:33.036Z,62.36
2018-03-18T08:40:00.591Z,61.91
2018-03-18T08:42:29.841Z,62.17
2018-03-18T08:44:58.206Z,62.06
2018-03-18T08:47:25.686Z,61.41
2018-03-18T08:49:53.183Z,60.58
2018-03-18T08:52:20.707Z,59.96
2018-03-18T08:54:48.138Z,60.03
2018-03-18T08:57:15.611Z,60.21
2018-03-18T08:59:43.090Z,59.76
2018-03-18T09:02:10.861Z,58.40
2018-03-18T09:04:38.321Z,57.73
2018-03-18T09:07:06.070Z,57.59
2018-03-18T09:09:33.560Z,58.83
2018-03-18T09:12:01.132Z,58.67
2018-03-18T09:14:28.618Z,59.22
2018-03-18T09:16:56.104Z,59.03
2018-03-18T09:19:23.602Z,57.27
2018-03-18T09:21:51.067Z,58.17
2018-03-18T09:24:19.081Z,57.15
2018-03-18T09:26:46.663Z,57.92
2018-03-18T09:29:14.404Z,56.35
2018-03-18T09:31:45.494Z,57.68
2018-03-18T09:34:14.510Z,57.71
2018-03-18T09:36:42.412Z,57.39
2018-03-18T09:39:11.085Z,55.66
2018-03-18T09:41:38.891Z,58.05
2018-03-18T09:44:07.205Z,56.47
2018-03-18T09:46:35.198Z,56.36
2018-03-18T09:49:02.755Z,55.15
2018-03-18T09:51:33.282Z,54.47
2018-03-18T09:54:01.292Z,55.58
2018-03-18T09:56:29.261Z,55.34
2018-03-18T09:58:56.853Z,53.99
2018-03-18T10:01:24.397Z,53.48
2018-03-18T10:05:45.727Z,53.53
2018-03-18T10:08:13.185Z,52.97
2018-03-18T10:10:40.719Z,51.61
2018-03-18T10:13:08.159Z,51.10
2018-03-18T10:15:35.657Z,50.42
2018-03-18T10:18:03.114Z,48.41
2018-03-18T10:20:30.586Z,47.38
2018-03-18T10:22:58.050Z,46.52
2018-03-18T10:25:25.502Z,48.04
2018-03-18T10:27:52.958Z,46.32
2018-03-18T10:30:20.422Z,47.77
2018-03-18T10:32:47.880Z,48.20
2018-03-18T10:35:15.351Z,49.09
2018-03-18T10:37:42.804Z,47.20
2018-03-18T10:40:10.302Z,48.15
2018-03-18T10:42:37.768Z,47.61
2018-03-18T10:45:05.219Z,47.35
2018-03-18T10:47:32.686Z,48.29
2018-03-18T10:50:00.169Z,45.63
2018-03-18T10:52:27.617Z,43.11
2018-03-18T10:54:55.087Z,44.37
2018-03-18T10:57:22.538Z,43.64
2018-03-18T10:59:50.011Z,44.00
2018-03-18T11:02:17.488Z,43.63
2018-03-18T11:04:44.996Z,42.86
2018-03-18T11:07:16.720Z,44.27
2018-03-18T11:09:44.251Z,42.25
2018-03-18T11:12:11.854Z,43.27
2018-03-18T11:14:39.323Z,41.93
2018-03-18T11:17:06.787Z,42.77
2018-03-18T11:19:34.233Z,43.34
2018-03-18T11:22:01.719Z,42.72
2018-03-18T11:24:29.179Z,43.37
2018-03-18T11:26:56.694Z,43.09
2018-03-18T11:29:24.267Z,43.31
2018-03-18T11:31:51.764Z,42.40
2018-03-18T11:34:24.016Z,42.75
2018-03-18T11:36:51.510Z,41.93
2018-03-18T11:39:19.825Z,41.63
2018-03-18T11:41:47.276Z,42.80
2018-03-18T11:44:14.745Z,43.44
2018-03-18T11:46:42.232Z,42.57
2018-03-18T11:49:09.766Z,43.68
2018-03-18T11:51:37.210Z,45.34
2018-03-18T11:54:04.709Z,45.71
2018-03-18T11:56:32.188Z,44.69
2018-03-18T11:59:00.953Z,44.46
2018-03-18T12:01:28.641Z,45.04
2018-03-18T12:03:56.093Z,45.72
2018-03-18T12:06:23.576Z,46.52
2018-03-18T12:08:59.739Z,48.17
2018-03-18T12:11:27.182Z,48.42
2018-03-18T12:13:54.648Z,49.00
2018-03-18T12:16:22.110Z,48.05
2018-03-18T12:18:49.566Z,47.24
2018-03-18T12:21:17.030Z,47.95
2018-03-18T12:23:44.491Z,47.71
2018-03-18T12:26:12.519Z,46.42
2018-03-18T12:28:40.029Z,47.17
2018-03-18T12:31:07.544Z,47.07
2018-03-18T12:33:35.286Z,47.84
2018-03-18T12:36:02.750Z,47.88
2018-03-18T12:38:30.223Z,49.09
2018-03-18T12:40:57.783Z,49.52
2018-03-18T12:43:30.341Z,50.49
2018-03-18T12:45:57.884Z,48.86
2018-03-18T12:48:25.389Z,49.72
2018-03-18T12:50:52.842Z,51.36
2018-03-18T12:53:20.484Z,49.12
2018-03-18T12:55:47.959Z,48.99
2018-03-18T12:58:15.398Z,50.58
2018-03-18T13:00:42.850Z,49.44
2018-03-18T13:03:10.387Z,48.24
2018-03-18T13:05:37.908Z,49.30
2018-03-18T13:08:05.356Z,50.47
2018-03-18T13:10:32.854Z,50.81
2018-03-18T13:13:00.340Z,52.07
2018-03-18T13:15:27.797Z,53.64
2018-03-18T13:17:55.286Z,52.15
2018-03-18T13:20:23.097Z,52.70
2018-03-18T13:22:50.541Z,54.26
2018-03-18T13:25:18.018Z,52.68
2018-03-18T13:27:45.459Z,53.33
2018-03-18T13:30:12.937Z,53.96
2018-03-18T13:32:40.385Z,53.43
2018-03-18T13:35:07.880Z,51.25
2018-03-18T13:37:35.338Z,52.24
2018-03-18T13:40:02.926Z,51.36
2018-03-18T13:42:30.386Z,52.15
2018-03-18T13:44:57.846Z,51.83
2018-03-18T13:47:25.325Z,51.11
2018-03-18T13:49:52.814Z,51.66
2018-03-18T13:52:20.281Z,51.33
2018-03-18T13:54:47.746Z,51.39
2018-03-18T13:57:15.204Z,51.12
2018-03-18T13:59:42.665Z,50.58
2018-03-18T14:02:10.102Z,51.65
2018-03-18T14:04:37.550Z,52.04
2018-03-18T14:07:04.996Z,52.30
2018-03-18T14:09:32.483Z,51.79
2018-03-18T14:11:59.959Z,53.06
2018-03-18T14:14:27.441Z,53.21
2018-03-18T14:16:54.900Z,53.35
2018-03-18T14:19:22.437Z,52.96
2018-03-18T14:21:49.904Z,53.08
2018-03-18T14:24:17.362Z,54.66
2018-03-18T14:26:44.863Z,53.25
2018-03-18T14:29:12.391Z,52.70
2018-03-18T14:31:39.838Z,53.52
2018-03-18T14:34:07.291Z,53.82
2018-03-18T14:36:34.742Z,53.05
2018-03-18T14:39:02.275Z,53.85
2018-03-18T14:41:29.763Z,52.97
2018-03-18T14:43:57.231Z,54.58
2018-03-18T14:46:24.686Z,54.25
2018-03-18T14:48:52.145Z,54.38
2018-03-18T14:51:19.641Z,53.62
2018-03-18T14:53:47.140Z,54.94
2018-03-18T14:56:14.578Z,54.41
2018-03-18T14:58:42.035Z,55.13
2018-03-18T15:01:09.522Z,56.22
2018-03-18T15:03:37.064Z,56.80
2018-03-18T15:06:04.567Z,56.11
2018-03-18T15:08:32.074Z,55.26
2018-03-18T15:10:59.540Z,56.63
2018-03-18T15:13:26.990Z,56.21
2018-03-18T15:15:54.451Z,57.03
2018-03-18T15:18:21.944Z,58.23
2018-03-18T15:20:49.355Z,57.92
2018-03-18T15:23:16.804Z,57.71
2018-03-18T15:25:44.287Z,57.60
2018-03-18T15:28:11.869Z,58.01
2018-03-18T15:30:39.393Z,56.88
2018-03-18T15:33:06.858Z,58.36
2018-03-18T15:35:34.299Z,59.00
2018-03-18T15:38:01.794Z,57.65
2018-03-18T15:40:29.828Z,58.93
2018-03-18T15:42:57.337Z,59.48
2018-03-18T15:45:24.794Z,59.28
2018-03-18T15:47:52.302Z,58.72
2018-03-18T15:50:21.157Z,59.17
2018-03-18T15:52:48.606Z,60.15
2018-03-18T15:55:16.266Z,59.73
2018-03-18T15:57:43.716Z,58.84
2018-03-18T16:00:11.183Z,58.38
2018-03-18T16:02:38.619Z,58.71
2018-03-18T16:05:06.094Z,58.36
2018-03-18T16:07:33.597Z,58.41
2018-03-18T16:10:01.079Z,59.91
2018-03-18T16:12:28.541Z,59.50
2018-03-18T16:14:55.986Z,60.16
2018-03-18T16:17:23.513Z,59.95
2018-03-18T16:19:50.982Z,60.74
2018-03-18T16:22:18.498Z,61.15
2018-03-18T16:24:46.005Z,60.48
2018-03-18T16:27:13.456Z,60.84
2018-03-18T16:29:52.691Z,61.67
2018-03-18T16:32:20.200Z,61.56
2018-03-18T16:34:47.798Z,61.68
2018-03-18T16:37:15.270Z,62.21
2018-03-18T16:39:42.764Z,62.76
2018-03-18T16:42:10.260Z,62.29
2018-03-18T16:44:37.781Z,62.85
2018-03-18T16:47:05.226Z,61.62
2018-03-18T16:49:32.667Z,64.41
2018-03-18T16:52:00.120Z,66.04
2018-03-18T16:54:27.655Z,63.49
2018-03-18T16:56:55.132Z,62.45
2018-03-18T16:59:22.704Z,62.99
2018-03-18T17:01:50.169Z,62.53
2018-03-18T17:04:17.652Z,63.14
2018-03-18T17:06:45.119Z,63.11
2018-03-18T17:09:12.586Z,62.81
2018-03-18T17:11:40.341Z,62.73
2018-03-18T17:14:07.807Z,63.26
2018-03-18T17:16:35.457Z,63.41
2018-03-18T17:19:03.001Z,63.29
2018-03-18T17:21:30.592Z,64.67
2018-03-18T17:23:58.155Z,63.73
2018-03-18T17:26:25.630Z,64.67
2018-03-18T17:28:53.101Z,64.92
2018-03-18T17:31:20.579Z,64.18
2018-03-18T17:33:48.224Z,64.58
2018-03-18T17:36:15.856Z,63.90
2018-03-18T17:38:43.328Z,64.00
2018-03-18T17:41:10.887Z,64.32
2018-03-18T17:43:40.903Z,64.07
2018-03-18T17:46:20.238Z,63.45
2018-03-18T17:48:59.527Z,63.66
2018-03-18T17:51:38.890Z,63.23
2018-03-18T17:54:18.141Z,63.80
2018-03-18T17:56:45.587Z,63.77
2018-03-18T17:59:13.054Z,63.98
2018-03-18T18:01:40.617Z,64.01
2018-03-18T18:04:08.205Z,64.61
2018-03-18T18:06:35.966Z,64.65
2018-03-18T18:09:03.446Z,65.05
2018-03-18T18:11:31.648Z,64.50
2018-03-18T18:14:00.157Z,64.56
2018-03-18T18:16:27.681Z,64.66
2018-03-18T18:18:55.326Z,64.75
2018-03-18T18:21:22.937Z,65.07
2018-03-18T18:23:50.449Z,65.20
2018-03-18T18:26:17.902Z,64.08
2018-03-18T18:28:45.423Z,65.06
2018-03-18T18:31:13.037Z,64.74
2018-03-18T18:33:40.551Z,65.22
2018-03-18T18:36:08.954Z,64.22
2018-03-18T18:38:36.498Z,64.99
2018-03-18T18:41:04.172Z,65.02
2018-03-18T18:43:31.664Z,65.40
2018-03-18T18:45:59.152Z,65.02
2018-03-18T18:48:26.664Z,63.39
2018-03-18T18:50:54.190Z,65.25
2018-03-18T18:53:21.976Z,64.02
2018-03-18T18:55:50.083Z,64.31
2018-03-18T18:58:17.554Z,65.46
2018-03-18T19:00:45.300Z,65.54
2018-03-18T19:03:12.767Z,65.69
2018-03-18T19:05:40.293Z,65.10
2018-03-18T19:08:07.792Z,65.52
2018-03-18T19:10:35.342Z,64.71
2018-03-18T19:13:02.861Z,64.69
2018-03-18T19:15:30.379Z,65.19
2018-03-18T19:17:57.947Z,64.94
2018-03-18T19:20:25.508Z,65.06
2018-03-18T19:22:53.237Z,65.58
2018-03-18T19:25:22.572Z,65.46
2018-03-18T19:27:50.275Z,65.20
2018-03-18T19:30:17.756Z,65.61
2018-03-18T19:32:45.313Z,65.32
2018-03-18T19:35:12.972Z,65.05
2018-03-18T19:37:40.570Z,65.20
2018-03-18T19:40:08.277Z,65.60
2018-03-18T19:42:35.780Z,65.44
2018-03-18T19:45:03.278Z,65.66
2018-03-18T19:47:30.762Z,65.17
2018-03-18T19:49:58.392Z,65.03
2018-03-18T19:52:26.094Z,65.35
2018-03-18T19:54:53.567Z,64.89
2018-03-18T19:57:21.024Z,65.01
2018-03-18T19:59:48.483Z,65.64
2018-03-18T20:02:15.989Z,65.08
2018-03-18T20:04:43.605Z,64.73
2018-03-18T20:07:11.102Z,64.42
2018-03-18T20:09:38.671Z,64.92
2018-03-18T20:12:06.178Z,64.93
2018-03-18T20:14:33.630Z,65.49
2018-03-18T20:17:01.119Z,64.92
2018-03-18T20:19:28.620Z,64.55
2018-03-18T20:21:56.112Z,65.32
2018-03-18T20:24:23.545Z,65.27
2018-03-18T20:26:51.051Z,65.21
2018-03-18T20:29:18.492Z,65.45
2018-03-18T20:31:46.023Z,65.59
2018-03-18T20:34:13.571Z,65.35
2018-03-18T20:36:41.093Z,64.69
2018-03-18T20:39:08.632Z,65.46
2018-03-18T20:41:36.175Z,66.64
2018-03-18T20:44:03.654Z,65.20
2018-03-18T20:46:31.188Z,66.40
2018-03-18T20:48:58.723Z,66.46
2018-03-18T20:51:26.257Z,65.97
2018-03-18T20:53:53.957Z,65.95
2018-03-18T20:56:21.463Z,66.36
2018-03-18T20:58:49.019Z,65.34
2018-03-18T21:01:16.474Z,65.81
2018-03-18T21:03:43.971Z,66.85
2018-03-18T21:06:11.469Z,65.39
2018-03-18T21:08:38.961Z,66.05
2018-03-18T21:11:06.401Z,66.81
2018-03-18T21:13:33.899Z,67.69
2018-03-18T21:16:01.379Z,66.45
2018-03-18T21:18:28.971Z,66.75
2018-03-18T21:20:56.518Z,66.48
2018-03-18T21:23:23.986Z,66.26
2018-03-18T21:25:51.436Z,66.73
2018-03-18T21:28:18.898Z,66.94
2018-03-18T21:30:46.357Z,66.48
2018-03-18T21:33:13.989Z,67.12
2018-03-18T21:35:41.395Z,66.84
2018-03-18T21:38:08.860Z,67.11
2018-03-18T21:40:36.473Z,66.96
2018-03-18T21:43:04.012Z,67.22
2018-03-18T21:45:31.527Z,66.95
2018-03-18T21:47:59.004Z,67.32
2018-03-18T21:50:26.541Z,67.66
2018-03-18T21:52:53.998Z,66.95
2018-03-18T21:55:21.453Z,66.92
2018-03-18T21:57:48.982Z,67.07
2018-03-18T22:00:16.424Z,66.74
2018-03-18T22:02:43.987Z,66.64
2018-03-18T22:05:11.468Z,66.72
2018-03-18T22:07:38.909Z,66.82
2018-03-18T22:10:06.345Z,66.91
2018-03-18T22:12:33.817Z,67.32
2018-03-18T22:15:01.270Z,66.56
2018-03-18T22:17:28.721Z,67.34
2018-03-18T22:19:56.197Z,67.11
2018-03-18T22:22:23.648Z,66.54
2018-03-18T22:24:51.105Z,66.30
2018-03-18T22:27:18.558Z,67.21
2018-03-18T22:29:46.012Z,67.61
2018-03-18T22:32:13.455Z,66.86
2018-03-18T22:34:41.566Z,67.00
2018-03-18T22:37:09.001Z,67.03
2018-03-18T22:39:36.463Z,66.99
2018-03-18T22:42:04.016Z,66.72
2018-03-18T22:44:31.470Z,67.20
2018-03-18T22:46:58.923Z,67.22
2018-03-18T22:49:26.416Z,66.74
2018-03-18T22:51:53.897Z,66.48
2018-03-18T22:54:21.342Z,66.65
2018-03-18T22:56:48.782Z,66.90
2018-03-18T22:59:16.226Z,67.04
2018-03-18T23:01:43.658Z,66.90
2018-03-18T23:04:11.126Z,67.43
2018-03-18T23:06:38.590Z,67.30
2018-03-18T23:09:06.046Z,67.03
2018-03-18T23:11:33.514Z,66.38
2018-03-18T23:14:00.962Z,66.74
2018-03-18T23:16:28.410Z,67.57
2018-03-18T23:18:55.867Z,67.86
2018-03-18T23:21:23.337Z,67.14
2018-03-18T23:23:50.784Z,66.99
2018-03-18T23:26:18.245Z,67.21
2018-03-18T23:28:45.701Z,66.94
2018-03-18T23:31:13.145Z,67.06
2018-03-18T23:33:40.602Z,66.85
2018-03-18T23:36:08.054Z,67.24
2018-03-18T23:38:35.526Z,66.43
2018-03-18T23:41:02.969Z,66.64
2018-03-18T23:43:30.421Z,66.30
2018-03-18T23:45:57.906Z,66.98
2018-03-18T23:48:25.409Z,66.60
2018-03-18T23:50:52.854Z,67.26
2018-03-18T23:53:20.298Z,66.77
2018-03-18T23:55:47.754Z,67.12
2018-03-18T23:58:15.193Z,67.64
